sensor_id;sensor_type;location;lat;lon;timestamp;P1;durP1;ratioP1;P2;durP2;ratioP2
4084;SDS011;2057;50.858;6.572;2022-08-21T00:00:15;17.80;;;7.70;;
4084;SDS011;2057;50.858;6.572;2022-08-21T00:02:48;20.90;;;7.73;;
4084;SDS011;2057;50.858;6.572;2022-08-21T00:05:16;26.83;;;8.13;;
4084;SDS011;2057;50.858;6.572;2022-08-21T00:07:42;16.53;;;7.30;;
4084;SDS011;2057;50.858;6.572;2022-08-21T00:10:08;39.90;;;7.50;;
4084;SDS011;2057;50.858;6.572;2022-08-21T00:12:35;15.40;;;7.20;;
4084;SDS011;2057;50.858;6.572;2022-08-21T00:15:00;25.43;;;7.40;;
4084;SDS011;2057;50.858;6.572;2022-08-21T00:17:26;28.77;;;7.23;;
4084;SDS011;2057;50.858;6.572;2022-08-21T00:19:51;25.63;;;7.57;;
4084;SDS011;2057;50.858;6.572;2022-08-21T00:22:16;17.40;;;7.90;;
4084;SDS011;2057;50.858;6.572;2022-08-21T00:24:42;21.27;;;8.10;;
4084;SDS011;2057;50.858;6.572;2022-08-21T00:27:07;23.77;;;7.30;;
4084;SDS011;2057;50.858;6.572;2022-08-21T00:29:33;22.87;;;7.30;;
4084;SDS011;2057;50.858;6.572;2022-08-21T00:31:58;19.30;;;7.47;;
4084;SDS011;2057;50.858;6.572;2022-08-21T00:34:25;30.50;;;8.10;;
4084;SDS011;2057;50.858;6.572;2022-08-21T00:36:50;14.93;;;6.90;;
4084;SDS011;2057;50.858;6.572;2022-08-21T00:39:15;18.83;;;6.97;;
4084;SDS011;2057;50.858;6.572;2022-08-21T00:41:42;8.50;;;6.20;;
4084;SDS011;2057;50.858;6.572;2022-08-21T00:44:09;20.90;;;6.90;;
4084;SDS011;2057;50.858;6.572;2022-08-21T00:46:37;14.23;;;6.83;;
4084;SDS011;2057;50.858;6.572;2022-08-21T00:49:03;22.30;;;8.93;;
4084;SDS011;2057;50.858;6.572;2022-08-21T00:51:52;25.43;;;7.50;;
4084;SDS011;2057;50.858;6.572;2022-08-21T00:54:19;15.87;;;7.40;;
4084;SDS011;2057;50.858;6.572;2022-08-21T00:56:48;19.70;;;6.53;;
4084;SDS011;2057;50.858;6.572;2022-08-21T00:59:17;12.97;;;7.40;;
4084;SDS011;2057;50.858;6.572;2022-08-21T01:01:45;13.30;;;7.60;;
4084;SDS011;2057;50.858;6.572;2022-08-21T01:04:11;19.93;;;6.77;;
4084;SDS011;2057;50.858;6.572;2022-08-21T01:06:37;17.40;;;7.77;;
4084;SDS011;2057;50.858;6.572;2022-08-21T01:09:02;16.73;;;7.70;;
4084;SDS011;2057;50.858;6.572;2022-08-21T01:11:28;18.37;;;8.40;;
4084;SDS011;2057;50.858;6.572;2022-08-21T01:13:53;26.03;;;7.20;;
4084;SDS011;2057;50.858;6.572;2022-08-21T01:16:20;18.47;;;8.00;;
4084;SDS011;2057;50.858;6.572;2022-08-21T01:18:47;19.73;;;7.63;;
4084;SDS011;2057;50.858;6.572;2022-08-21T01:21:14;18.40;;;7.37;;
4084;SDS011;2057;50.858;6.572;2022-08-21T01:23:49;21.67;;;8.57;;
4084;SDS011;2057;50.858;6.572;2022-08-21T01:26:20;17.50;;;7.07;;
4084;SDS011;2057;50.858;6.572;2022-08-21T01:28:50;12.90;;;6.60;;
4084;SDS011;2057;50.858;6.572;2022-08-21T01:31:22;13.40;;;6.00;;
4084;SDS011;2057;50.858;6.572;2022-08-21T01:33:50;9.93;;;5.83;;
4084;SDS011;2057;50.858;6.572;2022-08-21T01:36:16;20.83;;;6.67;;
4084;SDS011;2057;50.858;6.572;2022-08-21T01:38:41;13.57;;;6.90;;
4084;SDS011;2057;50.858;6.572;2022-08-21T01:41:07;17.87;;;7.67;;
4084;SDS011;2057;50.858;6.572;2022-08-21T01:43:32;31.87;;;7.63;;
4084;SDS011;2057;50.858;6.572;2022-08-21T01:45:58;18.80;;;7.83;;
4084;SDS011;2057;50.858;6.572;2022-08-21T01:48:23;21.97;;;7.93;;
4084;SDS011;2057;50.858;6.572;2022-08-21T01:50:48;11.37;;;6.03;;
4084;SDS011;2057;50.858;6.572;2022-08-21T01:53:14;12.37;;;7.07;;
4084;SDS011;2057;50.858;6.572;2022-08-21T01:55:40;18.73;;;7.33;;
4084;SDS011;2057;50.858;6.572;2022-08-21T01:58:07;10.13;;;6.50;;
4084;SDS011;2057;50.858;6.572;2022-08-21T02:00:33;15.03;;;7.17;;
4084;SDS011;2057;50.858;6.572;2022-08-21T02:02:58;14.97;;;6.33;;
4084;SDS011;2057;50.858;6.572;2022-08-21T02:05:24;17.60;;;6.47;;
4084;SDS011;2057;50.858;6.572;2022-08-21T02:07:50;11.20;;;7.00;;
4084;SDS011;2057;50.858;6.572;2022-08-21T02:10:19;15.50;;;6.80;;
4084;SDS011;2057;50.858;6.572;2022-08-21T02:12:51;9.97;;;6.87;;
4084;SDS011;2057;50.858;6.572;2022-08-21T02:15:16;15.70;;;6.70;;
4084;SDS011;2057;50.858;6.572;2022-08-21T02:17:50;20.50;;;6.53;;
4084;SDS011;2057;50.858;6.572;2022-08-21T02:20:31;11.93;;;6.43;;
4084;SDS011;2057;50.858;6.572;2022-08-21T02:23:00;14.47;;;6.90;;
4084;SDS011;2057;50.858;6.572;2022-08-21T02:25:26;12.93;;;5.80;;
4084;SDS011;2057;50.858;6.572;2022-08-21T02:27:53;14.17;;;5.67;;
4084;SDS011;2057;50.858;6.572;2022-08-21T02:30:21;10.87;;;5.80;;
4084;SDS011;2057;50.858;6.572;2022-08-21T02:32:48;18.03;;;5.47;;
4084;SDS011;2057;50.858;6.572;2022-08-21T02:35:14;12.30;;;4.97;;
4084;SDS011;2057;50.858;6.572;2022-08-21T02:37:44;12.83;;;5.10;;
4084;SDS011;2057;50.858;6.572;2022-08-21T02:40:11;10.90;;;5.53;;
4084;SDS011;2057;50.858;6.572;2022-08-21T02:42:37;11.07;;;5.30;;
4084;SDS011;2057;50.858;6.572;2022-08-21T02:45:05;16.10;;;5.83;;
4084;SDS011;2057;50.858;6.572;2022-08-21T02:47:31;9.57;;;6.20;;
4084;SDS011;2057;50.858;6.572;2022-08-21T02:49:57;12.00;;;6.40;;
4084;SDS011;2057;50.858;6.572;2022-08-21T02:52:22;20.60;;;6.67;;
4084;SDS011;2057;50.858;6.572;2022-08-21T02:54:49;20.63;;;6.23;;
4084;SDS011;2057;50.858;6.572;2022-08-21T02:57:14;18.93;;;5.87;;
4084;SDS011;2057;50.858;6.572;2022-08-21T02:59:39;14.13;;;6.20;;
4084;SDS011;2057;50.858;6.572;2022-08-21T03:02:05;13.30;;;6.20;;
4084;SDS011;2057;50.858;6.572;2022-08-21T03:04:31;15.13;;;6.97;;
4084;SDS011;2057;50.858;6.572;2022-08-21T03:06:56;10.47;;;5.70;;
4084;SDS011;2057;50.858;6.572;2022-08-21T03:09:22;26.20;;;7.03;;
4084;SDS011;2057;50.858;6.572;2022-08-21T03:11:47;14.70;;;6.00;;
4084;SDS011;2057;50.858;6.572;2022-08-21T03:14:13;15.77;;;6.73;;
4084;SDS011;2057;50.858;6.572;2022-08-21T03:16:38;14.77;;;7.90;;
4084;SDS011;2057;50.858;6.572;2022-08-21T03:19:03;19.60;;;8.17;;
4084;SDS011;2057;50.858;6.572;2022-08-21T03:21:29;12.33;;;6.97;;
4084;SDS011;2057;50.858;6.572;2022-08-21T03:23:55;16.30;;;7.30;;
4084;SDS011;2057;50.858;6.572;2022-08-21T03:26:20;20.03;;;7.70;;
4084;SDS011;2057;50.858;6.572;2022-08-21T03:28:46;22.50;;;7.57;;
4084;SDS011;2057;50.858;6.572;2022-08-21T03:31:11;10.27;;;7.03;;
4084;SDS011;2057;50.858;6.572;2022-08-21T03:33:36;22.37;;;7.60;;
4084;SDS011;2057;50.858;6.572;2022-08-21T03:36:04;14.63;;;7.97;;
4084;SDS011;2057;50.858;6.572;2022-08-21T03:38:31;24.37;;;8.70;;
4084;SDS011;2057;50.858;6.572;2022-08-21T03:40:58;18.60;;;8.20;;
4084;SDS011;2057;50.858;6.572;2022-08-21T03:43:25;15.70;;;8.00;;
4084;SDS011;2057;50.858;6.572;2022-08-21T03:45:51;17.97;;;8.80;;
4084;SDS011;2057;50.858;6.572;2022-08-21T03:48:17;13.77;;;7.60;;
4084;SDS011;2057;50.858;6.572;2022-08-21T03:50:43;28.43;;;8.77;;
4084;SDS011;2057;50.858;6.572;2022-08-21T03:53:12;15.60;;;7.00;;
4084;SDS011;2057;50.858;6.572;2022-08-21T03:55:38;11.73;;;7.60;;
4084;SDS011;2057;50.858;6.572;2022-08-21T03:58:04;14.10;;;7.03;;
4084;SDS011;2057;50.858;6.572;2022-08-21T04:00:30;14.43;;;6.10;;
4084;SDS011;2057;50.858;6.572;2022-08-21T04:02:55;10.37;;;6.93;;
4084;SDS011;2057;50.858;6.572;2022-08-21T04:05:21;20.73;;;6.50;;
4084;SDS011;2057;50.858;6.572;2022-08-21T04:07:58;16.93;;;6.57;;
4084;SDS011;2057;50.858;6.572;2022-08-21T04:10:25;21.60;;;7.53;;
4084;SDS011;2057;50.858;6.572;2022-08-21T04:12:52;11.83;;;6.20;;
4084;SDS011;2057;50.858;6.572;2022-08-21T04:15:18;16.87;;;6.47;;
4084;SDS011;2057;50.858;6.572;2022-08-21T04:17:45;18.50;;;6.77;;
4084;SDS011;2057;50.858;6.572;2022-08-21T04:20:10;14.93;;;6.07;;
4084;SDS011;2057;50.858;6.572;2022-08-21T04:22:36;14.07;;;6.90;;
4084;SDS011;2057;50.858;6.572;2022-08-21T04:25:01;21.30;;;6.67;;
4084;SDS011;2057;50.858;6.572;2022-08-21T04:27:26;25.53;;;7.63;;
4084;SDS011;2057;50.858;6.572;2022-08-21T04:29:52;12.27;;;5.97;;
4084;SDS011;2057;50.858;6.572;2022-08-21T04:32:23;14.20;;;7.03;;
4084;SDS011;2057;50.858;6.572;2022-08-21T04:34:49;13.60;;;5.83;;
4084;SDS011;2057;50.858;6.572;2022-08-21T04:37:15;17.33;;;7.00;;
4084;SDS011;2057;50.858;6.572;2022-08-21T04:39:41;25.67;;;7.63;;
4084;SDS011;2057;50.858;6.572;2022-08-21T04:42:07;18.33;;;6.23;;
4084;SDS011;2057;50.858;6.572;2022-08-21T04:44:33;14.50;;;5.67;;
4084;SDS011;2057;50.858;6.572;2022-08-21T04:46:59;14.77;;;6.80;;
4084;SDS011;2057;50.858;6.572;2022-08-21T04:49:24;14.60;;;6.20;;
4084;SDS011;2057;50.858;6.572;2022-08-21T04:51:49;11.93;;;6.37;;
4084;SDS011;2057;50.858;6.572;2022-08-21T04:54:19;20.70;;;7.53;;
4084;SDS011;2057;50.858;6.572;2022-08-21T04:56:54;14.07;;;5.60;;
4084;SDS011;2057;50.858;6.572;2022-08-21T04:59:28;12.90;;;6.10;;
4084;SDS011;2057;50.858;6.572;2022-08-21T05:01:58;15.03;;;5.33;;
4084;SDS011;2057;50.858;6.572;2022-08-21T05:04:27;10.53;;;5.83;;
4084;SDS011;2057;50.858;6.572;2022-08-21T05:06:56;10.10;;;5.20;;
4084;SDS011;2057;50.858;6.572;2022-08-21T05:09:25;9.57;;;5.23;;
4084;SDS011;2057;50.858;6.572;2022-08-21T05:11:51;15.67;;;6.13;;
4084;SDS011;2057;50.858;6.572;2022-08-21T05:14:17;17.03;;;6.00;;
4084;SDS011;2057;50.858;6.572;2022-08-21T05:16:44;10.23;;;6.03;;
4084;SDS011;2057;50.858;6.572;2022-08-21T05:19:10;16.20;;;6.17;;
4084;SDS011;2057;50.858;6.572;2022-08-21T05:21:37;12.33;;;6.20;;
4084;SDS011;2057;50.858;6.572;2022-08-21T05:24:04;9.20;;;5.10;;
4084;SDS011;2057;50.858;6.572;2022-08-21T05:26:30;14.83;;;4.97;;
4084;SDS011;2057;50.858;6.572;2022-08-21T05:28:55;10.07;;;5.70;;
4084;SDS011;2057;50.858;6.572;2022-08-21T05:31:21;12.20;;;5.50;;
4084;SDS011;2057;50.858;6.572;2022-08-21T05:33:47;11.07;;;5.23;;
4084;SDS011;2057;50.858;6.572;2022-08-21T05:36:12;7.63;;;4.37;;
4084;SDS011;2057;50.858;6.572;2022-08-21T05:38:38;15.80;;;6.00;;
4084;SDS011;2057;50.858;6.572;2022-08-21T05:41:03;13.60;;;5.30;;
4084;SDS011;2057;50.858;6.572;2022-08-21T05:43:29;8.13;;;4.73;;
4084;SDS011;2057;50.858;6.572;2022-08-21T05:45:54;10.83;;;4.90;;
4084;SDS011;2057;50.858;6.572;2022-08-21T05:48:21;10.40;;;4.73;;
4084;SDS011;2057;50.858;6.572;2022-08-21T05:50:48;14.10;;;4.67;;
4084;SDS011;2057;50.858;6.572;2022-08-21T05:53:16;21.50;;;5.47;;
4084;SDS011;2057;50.858;6.572;2022-08-21T05:55:43;15.50;;;5.17;;
4084;SDS011;2057;50.858;6.572;2022-08-21T05:58:08;15.57;;;5.63;;
4084;SDS011;2057;50.858;6.572;2022-08-21T06:00:34;12.93;;;5.80;;
4084;SDS011;2057;50.858;6.572;2022-08-21T06:02:59;11.93;;;5.93;;
4084;SDS011;2057;50.858;6.572;2022-08-21T06:05:25;24.50;;;6.33;;
4084;SDS011;2057;50.858;6.572;2022-08-21T06:07:51;13.23;;;6.93;;
4084;SDS011;2057;50.858;6.572;2022-08-21T06:10:17;16.80;;;5.63;;
4084;SDS011;2057;50.858;6.572;2022-08-21T06:12:42;11.17;;;5.10;;
4084;SDS011;2057;50.858;6.572;2022-08-21T06:15:08;10.10;;;5.67;;
4084;SDS011;2057;50.858;6.572;2022-08-21T06:17:33;9.87;;;5.90;;
4084;SDS011;2057;50.858;6.572;2022-08-21T06:19:59;21.40;;;6.03;;
4084;SDS011;2057;50.858;6.572;2022-08-21T06:22:24;16.23;;;4.83;;
4084;SDS011;2057;50.858;6.572;2022-08-21T06:24:49;9.17;;;4.97;;
4084;SDS011;2057;50.858;6.572;2022-08-21T06:27:15;14.97;;;5.27;;
4084;SDS011;2057;50.858;6.572;2022-08-21T06:29:42;13.37;;;5.17;;
4084;SDS011;2057;50.858;6.572;2022-08-21T06:32:10;13.13;;;5.50;;
4084;SDS011;2057;50.858;6.572;2022-08-21T06:34:37;8.70;;;4.90;;
4084;SDS011;2057;50.858;6.572;2022-08-21T06:37:04;19.67;;;5.57;;
4084;SDS011;2057;50.858;6.572;2022-08-21T06:39:30;14.53;;;5.57;;
4084;SDS011;2057;50.858;6.572;2022-08-21T06:41:56;28.50;;;5.50;;
4084;SDS011;2057;50.858;6.572;2022-08-21T06:44:22;11.87;;;5.03;;
4084;SDS011;2057;50.858;6.572;2022-08-21T06:46:47;17.00;;;5.20;;
4084;SDS011;2057;50.858;6.572;2022-08-21T06:49:13;8.87;;;4.97;;
4084;SDS011;2057;50.858;6.572;2022-08-21T06:51:39;15.63;;;5.47;;
4084;SDS011;2057;50.858;6.572;2022-08-21T06:54:05;8.70;;;4.20;;
4084;SDS011;2057;50.858;6.572;2022-08-21T06:56:31;13.33;;;4.70;;
4084;SDS011;2057;50.858;6.572;2022-08-21T06:58:58;17.57;;;4.70;;
4084;SDS011;2057;50.858;6.572;2022-08-21T07:01:24;20.70;;;5.20;;
4084;SDS011;2057;50.858;6.572;2022-08-21T07:03:51;12.50;;;4.63;;
4084;SDS011;2057;50.858;6.572;2022-08-21T07:06:17;8.83;;;3.90;;
4084;SDS011;2057;50.858;6.572;2022-08-21T07:08:42;13.47;;;5.20;;
4084;SDS011;2057;50.858;6.572;2022-08-21T07:11:17;5.90;;;4.07;;
4084;SDS011;2057;50.858;6.572;2022-08-21T07:13:45;8.73;;;4.20;;
4084;SDS011;2057;50.858;6.572;2022-08-21T07:16:10;9.30;;;3.93;;
4084;SDS011;2057;50.858;6.572;2022-08-21T07:18:37;8.10;;;3.13;;
4084;SDS011;2057;50.858;6.572;2022-08-21T07:21:03;18.20;;;3.93;;
4084;SDS011;2057;50.858;6.572;2022-08-21T07:23:31;15.30;;;3.33;;
4084;SDS011;2057;50.858;6.572;2022-08-21T07:26:00;6.23;;;2.80;;
4084;SDS011;2057;50.858;6.572;2022-08-21T07:28:26;16.20;;;3.20;;
4084;SDS011;2057;50.858;6.572;2022-08-21T07:30:53;18.23;;;3.50;;
4084;SDS011;2057;50.858;6.572;2022-08-21T07:33:20;10.27;;;3.60;;
4084;SDS011;2057;50.858;6.572;2022-08-21T07:35:46;14.63;;;3.20;;
4084;SDS011;2057;50.858;6.572;2022-08-21T07:38:11;16.97;;;3.60;;
4084;SDS011;2057;50.858;6.572;2022-08-21T07:40:37;16.33;;;3.20;;
4084;SDS011;2057;50.858;6.572;2022-08-21T07:43:02;8.80;;;2.33;;
4084;SDS011;2057;50.858;6.572;2022-08-21T07:45:28;12.40;;;3.30;;
4084;SDS011;2057;50.858;6.572;2022-08-21T07:47:53;6.07;;;2.23;;
4084;SDS011;2057;50.858;6.572;2022-08-21T07:50:19;13.67;;;3.60;;
4084;SDS011;2057;50.858;6.572;2022-08-21T07:52:44;8.47;;;2.87;;
4084;SDS011;2057;50.858;6.572;2022-08-21T07:55:12;20.20;;;3.30;;
4084;SDS011;2057;50.858;6.572;2022-08-21T07:57:39;8.07;;;3.30;;
4084;SDS011;2057;50.858;6.572;2022-08-21T08:00:05;10.53;;;2.60;;
4084;SDS011;2057;50.858;6.572;2022-08-21T08:02:33;9.07;;;2.00;;
4084;SDS011;2057;50.858;6.572;2022-08-21T08:04:59;14.87;;;2.63;;
4084;SDS011;2057;50.858;6.572;2022-08-21T08:07:26;6.80;;;2.77;;
4084;SDS011;2057;50.858;6.572;2022-08-21T08:09:51;14.93;;;2.90;;
4084;SDS011;2057;50.858;6.572;2022-08-21T08:12:17;12.03;;;2.37;;
4084;SDS011;2057;50.858;6.572;2022-08-21T08:14:43;12.07;;;3.03;;
4084;SDS011;2057;50.858;6.572;2022-08-21T08:17:08;11.53;;;2.53;;
4084;SDS011;2057;50.858;6.572;2022-08-21T08:19:34;16.63;;;3.30;;
4084;SDS011;2057;50.858;6.572;2022-08-21T08:22:00;6.27;;;2.47;;
4084;SDS011;2057;50.858;6.572;2022-08-21T08:24:25;27.13;;;3.40;;
4084;SDS011;2057;50.858;6.572;2022-08-21T08:26:51;11.90;;;3.13;;
4084;SDS011;2057;50.858;6.572;2022-08-21T08:29:16;9.00;;;2.90;;
4084;SDS011;2057;50.858;6.572;2022-08-21T08:31:41;11.50;;;2.40;;
4084;SDS011;2057;50.858;6.572;2022-08-21T08:34:07;9.73;;;2.87;;
4084;SDS011;2057;50.858;6.572;2022-08-21T08:36:33;8.40;;;3.10;;
4084;SDS011;2057;50.858;6.572;2022-08-21T08:39:02;5.43;;;2.53;;
4084;SDS011;2057;50.858;6.572;2022-08-21T08:41:29;9.67;;;2.67;;
4084;SDS011;2057;50.858;6.572;2022-08-21T08:43:57;10.63;;;2.53;;
4084;SDS011;2057;50.858;6.572;2022-08-21T08:46:32;9.70;;;3.00;;
4084;SDS011;2057;50.858;6.572;2022-08-21T08:51:48;10.30;;;3.00;;
4084;SDS011;2057;50.858;6.572;2022-08-21T08:54:31;7.10;;;2.60;;
4084;SDS011;2057;50.858;6.572;2022-08-21T08:57:06;13.53;;;2.57;;
4084;SDS011;2057;50.858;6.572;2022-08-21T08:59:54;5.37;;;2.47;;
4084;SDS011;2057;50.858;6.572;2022-08-21T09:02:21;6.73;;;2.13;;
4084;SDS011;2057;50.858;6.572;2022-08-21T09:04:52;7.10;;;2.60;;
4084;SDS011;2057;50.858;6.572;2022-08-21T09:07:28;5.33;;;2.60;;
4084;SDS011;2057;50.858;6.572;2022-08-21T09:25:40;6.27;;;2.03;;
4084;SDS011;2057;50.858;6.572;2022-08-21T09:28:11;17.97;;;3.40;;
4084;SDS011;2057;50.858;6.572;2022-08-21T09:30:39;19.50;;;2.77;;
4084;SDS011;2057;50.858;6.572;2022-08-21T09:33:05;12.60;;;3.33;;
4084;SDS011;2057;50.858;6.572;2022-08-21T09:35:31;12.90;;;2.70;;
4084;SDS011;2057;50.858;6.572;2022-08-21T09:37:59;11.43;;;3.30;;
4084;SDS011;2057;50.858;6.572;2022-08-21T09:43:22;8.40;;;2.23;;
4084;SDS011;2057;50.858;6.572;2022-08-21T09:45:48;12.63;;;2.77;;
4084;SDS011;2057;50.858;6.572;2022-08-21T09:48:17;10.93;;;3.93;;
4084;SDS011;2057;50.858;6.572;2022-08-21T09:50:45;9.20;;;2.63;;
4084;SDS011;2057;50.858;6.572;2022-08-21T09:55:56;9.20;;;2.80;;
4084;SDS011;2057;50.858;6.572;2022-08-21T09:58:43;6.77;;;2.47;;
4084;SDS011;2057;50.858;6.572;2022-08-21T10:01:24;7.20;;;2.23;;
4084;SDS011;2057;50.858;6.572;2022-08-21T10:06:49;9.43;;;2.87;;
4084;SDS011;2057;50.858;6.572;2022-08-21T10:09:16;7.33;;;2.27;;
4084;SDS011;2057;50.858;6.572;2022-08-21T10:11:49;10.83;;;2.60;;
4084;SDS011;2057;50.858;6.572;2022-08-21T10:17:16;12.33;;;2.80;;
4084;SDS011;2057;50.858;6.572;2022-08-21T10:19:56;9.27;;;2.90;;
4084;SDS011;2057;50.858;6.572;2022-08-21T10:22:41;10.20;;;3.00;;
4084;SDS011;2057;50.858;6.572;2022-08-21T10:28:19;4.77;;;2.13;;
4084;SDS011;2057;50.858;6.572;2022-08-21T10:31:02;10.37;;;2.60;;
4084;SDS011;2057;50.858;6.572;2022-08-21T10:36:39;8.90;;;2.73;;
4084;SDS011;2057;50.858;6.572;2022-08-21T10:39:33;4.83;;;2.13;;
4084;SDS011;2057;50.858;6.572;2022-08-21T10:48:06;7.97;;;2.13;;
4084;SDS011;2057;50.858;6.572;2022-08-21T10:53:19;11.93;;;2.90;;
4084;SDS011;2057;50.858;6.572;2022-08-21T11:01:00;8.27;;;2.47;;
4084;SDS011;2057;50.858;6.572;2022-08-21T11:03:41;6.50;;;2.80;;
4084;SDS011;2057;50.858;6.572;2022-08-21T11:06:14;8.53;;;2.30;;
4084;SDS011;2057;50.858;6.572;2022-08-21T11:08:43;8.03;;;2.63;;
4084;SDS011;2057;50.858;6.572;2022-08-21T11:14:00;6.77;;;2.23;;
4084;SDS011;2057;50.858;6.572;2022-08-21T11:16:58;12.10;;;2.43;;
4084;SDS011;2057;50.858;6.572;2022-08-21T11:27:51;9.03;;;2.67;;
4084;SDS011;2057;50.858;6.572;2022-08-21T11:30:21;6.67;;;2.37;;
4084;SDS011;2057;50.858;6.572;2022-08-21T11:41:37;10.90;;;2.67;;
4084;SDS011;2057;50.858;6.572;2022-08-21T11:44:18;12.90;;;2.87;;
4084;SDS011;2057;50.858;6.572;2022-08-21T11:54:58;16.53;;;3.20;;
4084;SDS011;2057;50.858;6.572;2022-08-21T12:00:29;4.73;;;2.53;;
4084;SDS011;2057;50.858;6.572;2022-08-21T12:03:04;28.23;;;11.30;;
4084;SDS011;2057;50.858;6.572;2022-08-21T12:05:57;8.57;;;3.33;;
4084;SDS011;2057;50.858;6.572;2022-08-21T12:08:27;10.43;;;2.80;;
4084;SDS011;2057;50.858;6.572;2022-08-21T12:11:03;12.50;;;2.87;;
4084;SDS011;2057;50.858;6.572;2022-08-21T12:16:32;10.60;;;3.30;;
4084;SDS011;2057;50.858;6.572;2022-08-21T12:19:07;17.63;;;3.57;;
4084;SDS011;2057;50.858;6.572;2022-08-21T12:30:19;9.97;;;3.10;;
4084;SDS011;2057;50.858;6.572;2022-08-21T12:33:00;16.97;;;2.80;;
4084;SDS011;2057;50.858;6.572;2022-08-21T12:35:31;8.37;;;3.37;;
4084;SDS011;2057;50.858;6.572;2022-08-21T12:38:06;11.23;;;3.00;;
4084;SDS011;2057;50.858;6.572;2022-08-21T12:40:48;7.30;;;2.57;;
4084;SDS011;2057;50.858;6.572;2022-08-21T12:46:17;16.77;;;3.70;;
4084;SDS011;2057;50.858;6.572;2022-08-21T12:48:54;18.07;;;3.03;;
4084;SDS011;2057;50.858;6.572;2022-08-21T12:51:24;7.93;;;2.50;;
4084;SDS011;2057;50.858;6.572;2022-08-21T12:53:56;7.67;;;2.60;;
4084;SDS011;2057;50.858;6.572;2022-08-21T12:56:26;9.77;;;3.40;;
4084;SDS011;2057;50.858;6.572;2022-08-21T12:58:55;7.17;;;2.87;;
4084;SDS011;2057;50.858;6.572;2022-08-21T13:03:57;5.27;;;2.73;;
4084;SDS011;2057;50.858;6.572;2022-08-21T13:06:25;8.30;;;2.47;;
4084;SDS011;2057;50.858;6.572;2022-08-21T13:08:57;7.77;;;2.57;;
4084;SDS011;2057;50.858;6.572;2022-08-21T13:11:28;7.47;;;2.73;;
4084;SDS011;2057;50.858;6.572;2022-08-21T13:13:53;5.17;;;2.27;;
4084;SDS011;2057;50.858;6.572;2022-08-21T13:16:20;7.77;;;2.33;;
4084;SDS011;2057;50.858;6.572;2022-08-21T13:18:54;9.10;;;3.10;;
4084;SDS011;2057;50.858;6.572;2022-08-21T13:21:27;5.87;;;2.13;;
4084;SDS011;2057;50.858;6.572;2022-08-21T13:26:47;9.63;;;3.00;;
4084;SDS011;2057;50.858;6.572;2022-08-21T13:29:15;11.03;;;2.70;;
4084;SDS011;2057;50.858;6.572;2022-08-21T13:31:47;8.33;;;2.90;;
4084;SDS011;2057;50.858;6.572;2022-08-21T13:34:24;5.60;;;2.53;;
4084;SDS011;2057;50.858;6.572;2022-08-21T13:36:56;8.90;;;2.30;;
4084;SDS011;2057;50.858;6.572;2022-08-21T13:39:24;6.00;;;2.37;;
4084;SDS011;2057;50.858;6.572;2022-08-21T13:41:50;13.70;;;3.40;;
4084;SDS011;2057;50.858;6.572;2022-08-21T13:44:21;11.73;;;2.73;;
4084;SDS011;2057;50.858;6.572;2022-08-21T13:46:51;13.83;;;2.80;;
4084;SDS011;2057;50.858;6.572;2022-08-21T13:49:19;11.37;;;3.03;;
4084;SDS011;2057;50.858;6.572;2022-08-21T13:51:49;9.03;;;2.67;;
4084;SDS011;2057;50.858;6.572;2022-08-21T13:54:27;5.23;;;2.30;;
4084;SDS011;2057;50.858;6.572;2022-08-21T13:57:01;8.87;;;2.40;;
4084;SDS011;2057;50.858;6.572;2022-08-21T13:59:33;10.37;;;2.40;;
4084;SDS011;2057;50.858;6.572;2022-08-21T14:04:35;9.60;;;2.53;;
4084;SDS011;2057;50.858;6.572;2022-08-21T14:07:13;6.23;;;2.33;;
4084;SDS011;2057;50.858;6.572;2022-08-21T14:09:44;11.53;;;2.90;;
4084;SDS011;2057;50.858;6.572;2022-08-21T14:12:16;10.30;;;2.13;;
4084;SDS011;2057;50.858;6.572;2022-08-21T14:14:44;7.80;;;1.93;;
4084;SDS011;2057;50.858;6.572;2022-08-21T14:17:12;7.83;;;2.83;;
4084;SDS011;2057;50.858;6.572;2022-08-21T14:19:50;6.00;;;1.80;;
4084;SDS011;2057;50.858;6.572;2022-08-21T14:22:29;10.30;;;2.30;;
4084;SDS011;2057;50.858;6.572;2022-08-21T14:27:32;6.27;;;2.13;;
4084;SDS011;2057;50.858;6.572;2022-08-21T14:30:10;8.60;;;2.53;;
4084;SDS011;2057;50.858;6.572;2022-08-21T14:32:56;11.20;;;2.80;;
4084;SDS011;2057;50.858;6.572;2022-08-21T14:35:22;5.27;;;1.97;;
4084;SDS011;2057;50.858;6.572;2022-08-21T14:37:48;6.30;;;2.30;;
4084;SDS011;2057;50.858;6.572;2022-08-21T14:40:15;5.67;;;2.03;;
4084;SDS011;2057;50.858;6.572;2022-08-21T14:42:42;8.70;;;2.47;;
4084;SDS011;2057;50.858;6.572;2022-08-21T14:45:19;4.90;;;1.80;;
4084;SDS011;2057;50.858;6.572;2022-08-21T14:47:49;6.73;;;1.87;;
4084;SDS011;2057;50.858;6.572;2022-08-21T14:50:15;4.20;;;1.80;;
4084;SDS011;2057;50.858;6.572;2022-08-21T14:52:40;14.73;;;2.20;;
4084;SDS011;2057;50.858;6.572;2022-08-21T14:55:08;5.37;;;1.90;;
4084;SDS011;2057;50.858;6.572;2022-08-21T14:57:39;4.90;;;1.90;;
4084;SDS011;2057;50.858;6.572;2022-08-21T15:00:10;3.67;;;2.00;;
4084;SDS011;2057;50.858;6.572;2022-08-21T15:02:41;3.67;;;2.03;;
4084;SDS011;2057;50.858;6.572;2022-08-21T15:05:07;4.90;;;1.73;;
4084;SDS011;2057;50.858;6.572;2022-08-21T15:07:32;3.87;;;2.00;;
4084;SDS011;2057;50.858;6.572;2022-08-21T15:09:58;5.27;;;1.70;;
4084;SDS011;2057;50.858;6.572;2022-08-21T15:12:23;5.50;;;1.50;;
4084;SDS011;2057;50.858;6.572;2022-08-21T15:14:49;3.47;;;2.33;;
4084;SDS011;2057;50.858;6.572;2022-08-21T15:17:15;4.77;;;2.17;;
4084;SDS011;2057;50.858;6.572;2022-08-21T15:19:41;5.10;;;1.97;;
4084;SDS011;2057;50.858;6.572;2022-08-21T15:22:06;5.50;;;1.93;;
4084;SDS011;2057;50.858;6.572;2022-08-21T15:24:32;5.10;;;1.77;;
4084;SDS011;2057;50.858;6.572;2022-08-21T15:26:58;6.37;;;2.27;;
4084;SDS011;2057;50.858;6.572;2022-08-21T15:29:26;6.63;;;2.10;;
4084;SDS011;2057;50.858;6.572;2022-08-21T15:31:56;8.50;;;2.03;;
4084;SDS011;2057;50.858;6.572;2022-08-21T15:34:24;6.73;;;1.80;;
4084;SDS011;2057;50.858;6.572;2022-08-21T15:36:52;3.83;;;1.80;;
4084;SDS011;2057;50.858;6.572;2022-08-21T15:39:18;3.23;;;1.87;;
4084;SDS011;2057;50.858;6.572;2022-08-21T15:41:44;8.17;;;1.50;;
4084;SDS011;2057;50.858;6.572;2022-08-21T15:44:10;6.43;;;2.40;;
4084;SDS011;2057;50.858;6.572;2022-08-21T15:46:38;11.83;;;2.03;;
4084;SDS011;2057;50.858;6.572;2022-08-21T15:49:04;7.93;;;2.00;;
4084;SDS011;2057;50.858;6.572;2022-08-21T15:51:29;6.40;;;1.93;;
4084;SDS011;2057;50.858;6.572;2022-08-21T15:53:55;5.40;;;2.30;;
4084;SDS011;2057;50.858;6.572;2022-08-21T15:56:22;8.07;;;1.90;;
4084;SDS011;2057;50.858;6.572;2022-08-21T15:58:51;4.53;;;2.10;;
4084;SDS011;2057;50.858;6.572;2022-08-21T16:01:19;6.87;;;2.33;;
4084;SDS011;2057;50.858;6.572;2022-08-21T16:03:47;7.67;;;2.00;;
4084;SDS011;2057;50.858;6.572;2022-08-21T16:06:14;3.60;;;2.40;;
4084;SDS011;2057;50.858;6.572;2022-08-21T16:08:40;7.23;;;2.20;;
4084;SDS011;2057;50.858;6.572;2022-08-21T16:11:05;9.43;;;2.37;;
4084;SDS011;2057;50.858;6.572;2022-08-21T16:13:33;4.13;;;1.50;;
4084;SDS011;2057;50.858;6.572;2022-08-21T16:16:04;8.33;;;3.00;;
4084;SDS011;2057;50.858;6.572;2022-08-21T16:18:32;13.73;;;2.17;;
4084;SDS011;2057;50.858;6.572;2022-08-21T16:20:58;7.67;;;2.87;;
4084;SDS011;2057;50.858;6.572;2022-08-21T16:23:23;4.93;;;2.60;;
4084;SDS011;2057;50.858;6.572;2022-08-21T16:25:48;2.60;;;2.03;;
4084;SDS011;2057;50.858;6.572;2022-08-21T16:28:15;6.30;;;2.03;;
4084;SDS011;2057;50.858;6.572;2022-08-21T16:30:43;4.50;;;2.20;;
4084;SDS011;2057;50.858;6.572;2022-08-21T16:33:21;6.90;;;2.50;;
4084;SDS011;2057;50.858;6.572;2022-08-21T16:35:58;3.73;;;2.20;;
4084;SDS011;2057;50.858;6.572;2022-08-21T16:38:25;7.97;;;2.57;;
4084;SDS011;2057;50.858;6.572;2022-08-21T16:40:52;10.33;;;2.80;;
4084;SDS011;2057;50.858;6.572;2022-08-21T16:43:25;6.03;;;1.63;;
4084;SDS011;2057;50.858;6.572;2022-08-21T16:45:53;7.10;;;2.40;;
4084;SDS011;2057;50.858;6.572;2022-08-21T16:48:20;5.80;;;2.60;;
4084;SDS011;2057;50.858;6.572;2022-08-21T16:50:46;6.97;;;2.60;;
4084;SDS011;2057;50.858;6.572;2022-08-21T16:53:12;6.37;;;2.30;;
4084;SDS011;2057;50.858;6.572;2022-08-21T16:55:37;5.90;;;2.37;;
4084;SDS011;2057;50.858;6.572;2022-08-21T16:58:08;9.43;;;2.60;;
4084;SDS011;2057;50.858;6.572;2022-08-21T17:00:37;6.83;;;2.33;;